createdAt,value
2023-07-08T00:00:26.389Z,5.57
2023-07-08T00:01:11.692Z,4.97
2023-07-08T00:01:55.143Z,4.72
2023-07-08T00:02:37.795Z,4.93
2023-07-08T00:03:21.734Z,4.60
2023-07-08T00:04:05.966Z,4.75
2023-07-08T00:04:48.458Z,4.57
2023-07-08T00:05:31.863Z,4.47
2023-07-08T00:06:17.876Z,4.82
2023-07-08T00:07:00.306Z,4.22
2023-07-08T00:07:44.285Z,4.28
2023-07-08T00:08:27.117Z,4.57
2023-07-08T00:09:12.668Z,4.95
2023-07-08T00:09:55.165Z,5.35
2023-07-08T00:10:38.825Z,4.57
2023-07-08T00:11:21.314Z,5.45
2023-07-08T00:12:05.573Z,4.60
2023-07-08T00:12:52.323Z,4.57
2023-07-08T00:13:34.828Z,4.88
2023-07-08T00:14:17.336Z,5.05
2023-07-08T00:15:02.127Z,4.25
2023-07-08T00:15:44.582Z,4.00
2023-07-08T00:16:27.181Z,5.05
2023-07-08T00:17:14.493Z,4.38
2023-07-08T00:17:57.231Z,4.68
2023-07-08T00:18:40.215Z,4.68
2023-07-08T00:19:24.912Z,5.53
2023-07-08T00:20:19.421Z,4.25
2023-07-08T00:21:02.937Z,4.72
2023-07-08T00:21:47.034Z,4.05
2023-07-08T00:22:29.572Z,4.47
2023-07-08T00:23:13.431Z,4.18
2023-07-08T00:23:56.790Z,5.03
2023-07-08T00:24:39.228Z,4.75
2023-07-08T00:25:22.777Z,4.40
2023-07-08T00:26:12.393Z,4.75
2023-07-08T00:26:55.884Z,4.30
2023-07-08T00:27:39.350Z,5.13
2023-07-08T00:28:22.854Z,4.53
2023-07-08T00:29:06.717Z,5.00
2023-07-08T00:29:50.105Z,4.32
2023-07-08T00:30:35.397Z,4.53
2023-07-08T00:31:18.092Z,4.68
2023-07-08T00:32:01.696Z,4.15
2023-07-08T00:32:44.205Z,4.82
2023-07-08T00:33:26.681Z,4.70
2023-07-08T00:34:10.112Z,5.18
2023-07-08T00:34:52.545Z,4.43
2023-07-08T00:35:38.169Z,4.22
2023-07-08T00:36:21.760Z,4.88
2023-07-08T00:37:07.178Z,4.32
2023-07-08T00:37:50.166Z,4.95
2023-07-08T00:38:35.335Z,4.55
2023-07-08T00:39:17.774Z,4.03
2023-07-08T00:40:00.225Z,4.38
2023-07-08T00:40:52.453Z,4.13
2023-07-08T00:42:20.467Z,3.85
2023-07-08T00:43:05.168Z,4.38
2023-07-08T00:43:51.704Z,5.05
2023-07-08T00:44:34.728Z,4.40
2023-07-08T00:45:53.536Z,4.57
2023-07-08T00:46:48.381Z,4.13
2023-07-08T00:47:32.860Z,4.45
2023-07-08T00:48:23.351Z,3.72
2023-07-08T00:49:20.671Z,3.72
2023-07-08T00:50:07.104Z,4.00
2023-07-08T00:50:49.730Z,4.43
2023-07-08T00:51:32.193Z,3.83
2023-07-08T00:52:27.047Z,4.28
2023-07-08T00:53:25.138Z,4.13
2023-07-08T00:54:10.220Z,4.10
2023-07-08T00:54:55.274Z,4.40
2023-07-08T00:55:37.702Z,4.13
2023-07-08T00:56:23.891Z,4.18
2023-07-08T00:57:07.496Z,4.00
2023-07-08T00:57:50.394Z,4.53
2023-07-08T00:58:35.524Z,3.97
2023-07-08T00:59:22.383Z,3.92
2023-07-08T01:00:06.831Z,4.13
2023-07-08T01:00:51.134Z,4.45
2023-07-08T01:01:37.707Z,4.20
2023-07-08T01:02:21.854Z,4.30
2023-07-08T01:03:04.603Z,5.47
2023-07-08T01:03:51.445Z,4.15
2023-07-08T01:04:36.361Z,4.03
2023-07-08T01:05:21.473Z,4.47
2023-07-08T01:06:05.490Z,3.85
2023-07-08T01:06:58.455Z,4.30
2023-07-08T01:07:45.023Z,4.18
2023-07-08T01:08:29.933Z,4.25
2023-07-08T01:09:14.151Z,4.50
2023-07-08T01:10:00.923Z,3.95
2023-07-08T01:10:46.727Z,4.68
2023-07-08T01:12:15.864Z,3.92
2023-07-08T01:13:45.022Z,4.78
2023-07-08T01:14:29.086Z,4.20
2023-07-08T01:15:11.874Z,4.18
2023-07-08T01:15:57.219Z,3.97
2023-07-08T01:16:39.786Z,4.07
2023-07-08T01:17:23.097Z,3.45
2023-07-08T01:18:06.711Z,4.28
2023-07-08T01:18:53.911Z,4.25
2023-07-08T01:19:36.411Z,4.10
2023-07-08T01:20:19.944Z,4.20
2023-07-08T01:21:07.240Z,3.60
2023-07-08T01:22:00.320Z,5.05
2023-07-08T01:22:44.108Z,4.20
2023-07-08T01:23:26.728Z,3.67
2023-07-08T01:24:11.636Z,4.30
2023-07-08T01:24:56.729Z,3.80
2023-07-08T01:25:39.291Z,3.40
2023-07-08T01:26:26.062Z,4.07
2023-07-08T01:27:11.356Z,4.10
2023-07-08T01:27:57.965Z,4.05
2023-07-08T01:28:40.730Z,3.58
2023-07-08T01:29:23.191Z,4.15
2023-07-08T01:30:10.025Z,3.80
2023-07-08T01:30:52.578Z,3.67
2023-07-08T01:31:35.650Z,3.55
2023-07-08T01:32:20.230Z,3.45
2023-07-08T01:33:06.221Z,3.65
2023-07-08T01:33:48.742Z,3.90
2023-07-08T01:34:32.580Z,4.40
2023-07-08T01:35:15.597Z,4.05
2023-07-08T01:35:58.042Z,3.63
2023-07-08T01:36:44.473Z,3.45
2023-07-08T01:37:29.950Z,3.92
2023-07-08T01:38:13.681Z,4.15
2023-07-08T01:38:57.140Z,3.60
2023-07-08T01:39:39.661Z,3.75
2023-07-08T01:40:27.802Z,4.00
2023-07-08T01:41:14.843Z,3.67
2023-07-08T01:41:58.585Z,3.80
2023-07-08T01:42:41.061Z,3.72
2023-07-08T01:43:24.469Z,4.00
2023-07-08T01:44:18.802Z,4.35
2023-07-08T01:45:01.254Z,4.95
2023-07-08T01:45:45.555Z,4.60
2023-07-08T01:46:29.242Z,4.35
2023-07-08T01:47:16.236Z,4.30
2023-07-08T01:48:03.563Z,4.18
2023-07-08T01:48:51.536Z,4.03
2023-07-08T01:49:36.527Z,3.53
2023-07-08T01:50:20.496Z,3.83
2023-07-08T01:51:06.282Z,4.40
2023-07-08T01:52:33.998Z,3.92
2023-07-08T01:53:17.893Z,4.53
2023-07-08T01:54:01.350Z,4.13
2023-07-08T01:54:43.810Z,3.67
2023-07-08T01:55:29.678Z,3.90
2023-07-08T01:56:14.796Z,4.00
2023-07-08T01:56:57.789Z,4.68
2023-07-08T01:57:40.237Z,4.90
2023-07-08T01:58:23.667Z,4.05
2023-07-08T01:59:06.100Z,3.90
2023-07-08T01:59:48.763Z,3.88
2023-07-08T02:00:32.166Z,4.05
2023-07-08T02:01:14.808Z,4.45
2023-07-08T02:01:57.507Z,3.85
2023-07-08T02:02:41.218Z,3.58
2023-07-08T02:03:24.074Z,3.78
2023-07-08T02:04:07.689Z,4.35
2023-07-08T02:04:50.136Z,3.65
2023-07-08T02:05:32.664Z,3.75
2023-07-08T02:06:16.125Z,3.85
2023-07-08T02:07:00.088Z,3.90
2023-07-08T02:07:43.890Z,3.67
2023-07-08T02:08:27.635Z,4.07
2023-07-08T02:09:10.122Z,3.72
2023-07-08T02:09:52.561Z,4.35
2023-07-08T02:10:36.072Z,4.68
2023-07-08T02:11:18.794Z,4.28
2023-07-08T02:12:01.217Z,3.90
2023-07-08T02:12:44.748Z,4.10
2023-07-08T02:13:27.512Z,4.13
2023-07-08T02:14:10.121Z,3.72
2023-07-08T02:14:53.597Z,3.78
2023-07-08T02:15:36.257Z,4.03
2023-07-08T02:16:18.786Z,3.90
2023-07-08T02:17:01.267Z,4.00
2023-07-08T02:17:44.742Z,3.80
2023-07-08T02:18:27.214Z,3.83
2023-07-08T02:19:09.958Z,4.50
2023-07-08T02:19:53.392Z,3.65
2023-07-08T02:20:35.844Z,3.78
2023-07-08T02:21:19.348Z,3.88
2023-07-08T02:22:01.815Z,4.20
2023-07-08T02:22:45.648Z,4.40
2023-07-08T02:23:29.235Z,4.20
2023-07-08T02:24:11.671Z,4.25
2023-07-08T02:24:54.130Z,4.15
2023-07-08T02:25:37.607Z,3.67
2023-07-08T02:26:21.640Z,4.40
2023-07-08T02:27:04.612Z,4.18
2023-07-08T02:27:48.034Z,4.38
2023-07-08T02:28:30.509Z,4.10
2023-07-08T02:29:12.928Z,4.63
2023-07-08T02:29:56.391Z,3.83
2023-07-08T02:30:38.848Z,3.90
2023-07-08T02:31:22.388Z,4.35
2023-07-08T02:32:06.416Z,4.50
2023-07-08T02:32:57.805Z,3.67
2023-07-08T02:33:40.479Z,3.88
2023-07-08T02:34:23.941Z,4.00
2023-07-08T02:35:07.272Z,4.35
2023-07-08T02:35:49.780Z,4.35
2023-07-08T02:36:33.240Z,3.90
2023-07-08T02:37:15.727Z,3.92
2023-07-08T02:37:59.635Z,4.28
2023-07-08T02:38:43.067Z,3.55
2023-07-08T02:39:25.546Z,4.28
2023-07-08T02:40:09.837Z,4.30
2023-07-08T02:40:53.289Z,3.97
2023-07-08T02:41:36.552Z,3.78
2023-07-08T02:42:19.048Z,4.10
2023-07-08T02:43:02.474Z,3.97
2023-07-08T02:43:44.945Z,3.38
2023-07-08T02:44:27.733Z,3.72
2023-07-08T02:45:12.117Z,4.60
2023-07-08T02:45:54.904Z,4.20
2023-07-08T02:46:37.533Z,4.22
2023-07-08T02:47:20.976Z,4.15
2023-07-08T02:48:03.633Z,4.30
2023-07-08T02:48:46.134Z,4.20
2023-07-08T02:49:29.928Z,4.22
2023-07-08T02:50:12.826Z,3.75
2023-07-08T02:51:00.751Z,4.10
2023-07-08T02:51:45.392Z,4.00
2023-07-08T02:52:28.002Z,3.90
2023-07-08T02:53:11.981Z,4.03
2023-07-08T02:53:55.914Z,3.60
2023-07-08T02:54:38.429Z,3.63
2023-07-08T02:55:20.948Z,4.35
2023-07-08T02:56:04.756Z,3.92
2023-07-08T02:56:47.229Z,4.60
2023-07-08T02:57:29.773Z,3.92
2023-07-08T02:58:13.211Z,4.05
2023-07-08T02:58:55.775Z,3.58
2023-07-08T02:59:38.244Z,3.70
2023-07-08T03:00:21.852Z,5.03
2023-07-08T03:01:04.815Z,4.18
2023-07-08T03:01:48.003Z,4.60
2023-07-08T03:02:31.768Z,4.40
2023-07-08T03:03:17.153Z,3.63
2023-07-08T03:04:01.534Z,4.35
2023-07-08T03:04:45.229Z,3.88
2023-07-08T03:05:27.936Z,3.42
2023-07-08T03:06:11.701Z,5.05
2023-07-08T03:06:54.163Z,3.33
2023-07-08T03:07:36.616Z,3.70
2023-07-08T03:08:21.379Z,4.10
2023-07-08T03:09:03.926Z,3.95
2023-07-08T03:09:47.339Z,4.18
2023-07-08T03:10:29.745Z,3.50
2023-07-08T03:11:12.752Z,3.67
2023-07-08T03:11:56.273Z,3.97
2023-07-08T03:12:38.769Z,3.50
2023-07-08T03:13:21.496Z,3.70
2023-07-08T03:14:05.189Z,3.75
2023-07-08T03:14:47.871Z,3.53
2023-07-08T03:15:30.321Z,3.53
2023-07-08T03:16:14.400Z,3.70
2023-07-08T03:16:56.954Z,3.90
2023-07-08T03:17:42.072Z,3.53
2023-07-08T03:18:25.240Z,3.88
2023-07-08T03:19:09.821Z,3.60
2023-07-08T03:19:53.407Z,3.45
2023-07-08T03:20:37.639Z,3.60
2023-07-08T03:21:20.544Z,3.65
2023-07-08T03:22:06.443Z,3.38
2023-07-08T03:22:48.966Z,3.60
2023-07-08T03:23:34.175Z,3.67
2023-07-08T03:24:19.031Z,4.03
2023-07-08T03:25:02.894Z,3.97
2023-07-08T03:25:45.388Z,3.97
2023-07-08T03:26:30.538Z,3.75
2023-07-08T03:27:18.178Z,3.90
2023-07-08T03:28:43.125Z,4.05
2023-07-08T03:29:26.582Z,4.20
2023-07-08T03:30:10.364Z,3.90
2023-07-08T03:30:53.995Z,4.15
2023-07-08T03:31:37.581Z,4.78
2023-07-08T03:32:20.149Z,4.03
2023-07-08T03:33:02.806Z,5.03
2023-07-08T03:33:46.334Z,3.60
2023-07-08T03:34:28.869Z,3.85
2023-07-08T03:35:11.362Z,4.05
2023-07-08T03:35:54.849Z,3.80
2023-07-08T03:36:39.184Z,4.00
2023-07-08T03:37:21.661Z,3.58
2023-07-08T03:38:04.173Z,3.67
2023-07-08T03:38:47.957Z,3.92
2023-07-08T03:39:32.718Z,3.58
2023-07-08T03:40:15.477Z,4.10
2023-07-08T03:40:59.639Z,4.07
2023-07-08T03:41:42.992Z,4.28
2023-07-08T03:42:27.244Z,3.40
2023-07-08T03:43:09.716Z,4.60
2023-07-08T03:43:52.340Z,3.92
2023-07-08T03:44:35.755Z,3.67
2023-07-08T03:45:18.254Z,4.00
2023-07-08T03:46:00.821Z,3.70
2023-07-08T03:46:44.963Z,3.75
2023-07-08T03:47:28.449Z,3.25
2023-07-08T03:48:12.207Z,3.60
2023-07-08T03:48:55.737Z,3.58
2023-07-08T03:49:38.283Z,3.63
2023-07-08T03:50:22.691Z,3.83
2023-07-08T03:51:06.346Z,4.00
2023-07-08T03:51:49.411Z,3.70
2023-07-08T03:52:32.668Z,3.58
2023-07-08T03:53:16.303Z,3.85
2023-07-08T03:54:00.673Z,3.42
2023-07-08T03:54:43.185Z,4.20
2023-07-08T03:55:26.777Z,4.28
2023-07-08T03:56:11.800Z,3.88
2023-07-08T03:56:54.398Z,4.18
2023-07-08T03:57:37.837Z,3.92
2023-07-08T03:58:20.321Z,3.50
2023-07-08T03:59:02.916Z,4.63
2023-07-08T03:59:46.420Z,4.15
2023-07-08T04:00:28.886Z,3.90
2023-07-08T04:01:16.856Z,4.05
2023-07-08T04:02:00.586Z,3.63
2023-07-08T04:02:44.137Z,3.83
2023-07-08T04:03:26.788Z,4.03
2023-07-08T04:04:12.685Z,3.70
2023-07-08T04:04:55.190Z,3.30
2023-07-08T04:05:37.715Z,3.80
2023-07-08T04:06:21.548Z,3.17
2023-07-08T04:07:04.295Z,3.58
2023-07-08T04:07:46.868Z,4.32
2023-07-08T04:08:30.330Z,4.07
2023-07-08T04:09:14.221Z,3.38
2023-07-08T04:09:56.686Z,3.50
2023-07-08T04:10:40.175Z,4.03
2023-07-08T04:11:24.138Z,3.88
2023-07-08T04:12:08.304Z,3.40
2023-07-08T04:12:51.670Z,3.65
2023-07-08T04:13:34.610Z,3.63
2023-07-08T04:14:18.151Z,3.20
2023-07-08T04:15:00.789Z,3.42
2023-07-08T04:15:43.248Z,3.78
2023-07-08T04:16:30.070Z,3.30
2023-07-08T04:17:13.119Z,3.55
2023-07-08T04:17:58.340Z,3.70
2023-07-08T04:18:42.020Z,3.67
2023-07-08T04:19:24.800Z,3.40
2023-07-08T04:20:09.759Z,3.83
2023-07-08T04:21:40.245Z,3.38
2023-07-08T04:22:22.934Z,3.78
2023-07-08T04:23:06.395Z,3.53
2023-07-08T04:23:48.848Z,3.67
2023-07-08T04:24:32.719Z,4.05
2023-07-08T04:25:16.532Z,3.13
2023-07-08T04:25:59.289Z,4.60
2023-07-08T04:26:42.577Z,3.70
2023-07-08T04:27:26.025Z,3.55
2023-07-08T04:28:10.073Z,3.88
2023-07-08T04:28:52.591Z,3.53
2023-07-08T04:29:36.354Z,3.33
2023-07-08T04:30:24.338Z,3.50
2023-07-08T04:31:06.895Z,3.78
2023-07-08T04:31:50.903Z,3.40
2023-07-08T04:32:33.548Z,3.72
2023-07-08T04:33:18.220Z,3.42
2023-07-08T04:34:01.665Z,3.13
2023-07-08T04:34:44.155Z,3.80
2023-07-08T04:35:27.607Z,3.40
2023-07-08T04:36:14.097Z,3.70
2023-07-08T04:36:56.663Z,3.17
2023-07-08T04:37:40.175Z,4.80
2023-07-08T04:38:24.356Z,3.47
2023-07-08T04:39:08.277Z,3.95
2023-07-08T04:39:53.155Z,3.20
2023-07-08T04:40:38.096Z,3.60
2023-07-08T04:41:20.745Z,3.67
2023-07-08T04:42:04.292Z,3.58
2023-07-08T04:42:48.480Z,3.13
2023-07-08T04:43:32.174Z,3.05
2023-07-08T04:44:17.463Z,3.65
2023-07-08T04:44:59.917Z,3.40
2023-07-08T04:45:43.997Z,3.40
2023-07-08T04:46:36.316Z,3.58
2023-07-08T04:47:21.250Z,3.53
2023-07-08T04:48:09.520Z,3.05
2023-07-08T04:48:58.684Z,4.50
2023-07-08T04:49:41.925Z,2.90
2023-07-08T04:50:25.509Z,3.63
2023-07-08T04:51:09.028Z,3.30
2023-07-08T04:51:52.348Z,3.55
2023-07-08T04:52:36.490Z,3.63
2023-07-08T04:53:19.370Z,3.28
2023-07-08T04:54:03.713Z,3.80
2023-07-08T04:54:47.174Z,3.80
2023-07-08T04:55:31.061Z,3.38
2023-07-08T04:56:13.505Z,3.20
2023-07-08T04:56:57.265Z,3.30
2023-07-08T04:57:39.758Z,3.53
2023-07-08T04:58:22.247Z,3.08
2023-07-08T04:59:06.337Z,3.20
2023-07-08T04:59:48.801Z,3.38
2023-07-08T05:00:31.576Z,3.05
2023-07-08T05:01:15.088Z,3.28
2023-07-08T05:01:57.575Z,3.17
2023-07-08T05:02:40.223Z,3.45
2023-07-08T05:03:31.175Z,3.13
2023-07-08T05:04:15.837Z,3.58
2023-07-08T05:04:58.313Z,4.28
2023-07-08T05:05:41.876Z,3.28
2023-07-08T05:06:24.450Z,3.70
2023-07-08T05:07:06.977Z,3.72
2023-07-08T05:07:51.403Z,3.50
2023-07-08T05:08:33.866Z,3.35
2023-07-08T05:09:17.742Z,3.88
2023-07-08T05:10:01.551Z,3.65
2023-07-08T05:10:45.500Z,3.80
2023-07-08T05:11:28.027Z,3.08
2023-07-08T05:12:11.568Z,3.75
2023-07-08T05:12:54.164Z,3.42
2023-07-08T05:13:36.847Z,3.58
2023-07-08T05:14:20.417Z,3.80
2023-07-08T05:15:03.462Z,3.53
2023-07-08T05:15:46.606Z,3.47
2023-07-08T05:16:30.357Z,3.70
2023-07-08T05:17:14.186Z,3.40
2023-07-08T05:17:57.695Z,3.53
2023-07-08T05:18:40.188Z,3.80
2023-07-08T05:19:24.297Z,3.40
2023-07-08T05:20:09.100Z,3.15
2023-07-08T05:20:55.930Z,3.95
2023-07-08T05:21:39.452Z,3.05
2023-07-08T05:22:26.379Z,3.40
2023-07-08T05:23:09.868Z,3.72
2023-07-08T05:23:52.427Z,3.70
2023-07-08T05:24:34.944Z,3.70
2023-07-08T05:25:20.368Z,3.33
2023-07-08T05:26:04.710Z,3.60
2023-07-08T05:26:47.196Z,4.20
2023-07-08T05:27:30.763Z,3.97
2023-07-08T05:28:13.221Z,4.63
2023-07-08T05:28:55.743Z,3.40
2023-07-08T05:29:40.990Z,3.78
2023-07-08T05:30:23.417Z,3.88
2023-07-08T05:31:05.869Z,4.13
2023-07-08T05:31:49.351Z,3.65
2023-07-08T05:32:32.318Z,3.65
2023-07-08T05:33:14.942Z,3.70
2023-07-08T05:33:58.511Z,3.97
2023-07-08T05:34:40.995Z,3.35
2023-07-08T05:35:23.502Z,3.05
2023-07-08T05:36:07.059Z,3.90
2023-07-08T05:36:49.544Z,3.78
2023-07-08T05:37:33.062Z,3.80
2023-07-08T05:38:15.602Z,3.40
2023-07-08T05:38:58.789Z,3.53
2023-07-08T05:39:42.629Z,4.15
2023-07-08T05:40:25.178Z,3.90
2023-07-08T05:41:10.030Z,3.35
2023-07-08T05:41:52.519Z,3.90
2023-07-08T05:42:34.952Z,4.45
2023-07-08T05:43:18.872Z,3.95
2023-07-08T05:44:01.332Z,3.25
2023-07-08T05:44:44.700Z,3.92
2023-07-08T05:45:31.381Z,3.63
2023-07-08T05:46:13.865Z,3.67
2023-07-08T05:46:56.534Z,3.88
2023-07-08T05:47:41.244Z,4.30
2023-07-08T05:48:23.792Z,4.18
2023-07-08T05:49:06.306Z,3.83
2023-07-08T05:49:49.908Z,3.78
2023-07-08T05:50:32.364Z,3.45
2023-07-08T05:51:14.940Z,4.60
2023-07-08T05:51:58.392Z,3.95
2023-07-08T05:52:40.862Z,3.47
2023-07-08T05:53:23.329Z,3.70
2023-07-08T05:54:06.800Z,3.78
2023-07-08T05:54:50.244Z,3.95
2023-07-08T05:55:33.536Z,3.78
2023-07-08T05:56:18.386Z,3.33
2023-07-08T05:57:00.872Z,3.67
2023-07-08T05:57:43.356Z,3.60
2023-07-08T05:58:27.490Z,3.60
2023-07-08T05:59:10.092Z,4.28
2023-07-08T05:59:53.916Z,3.42
2023-07-08T06:00:39.344Z,3.50
2023-07-08T06:01:22.167Z,3.63
2023-07-08T06:02:05.683Z,3.55
2023-07-08T06:02:49.203Z,4.40
2023-07-08T06:03:31.959Z,4.95
2023-07-08T06:04:14.544Z,3.47
2023-07-08T06:04:58.110Z,3.97
2023-07-08T06:05:40.605Z,3.60
2023-07-08T06:06:25.234Z,3.63
2023-07-08T06:07:07.791Z,3.72
2023-07-08T06:07:50.252Z,4.43
2023-07-08T06:08:33.842Z,3.85
2023-07-08T06:09:16.347Z,4.45
2023-07-08T06:09:58.886Z,4.03
2023-07-08T06:10:44.402Z,3.60
2023-07-08T06:11:30.870Z,3.60
2023-07-08T06:12:14.704Z,4.13
2023-07-08T06:12:58.155Z,3.45
2023-07-08T06:13:40.671Z,3.70
2023-07-08T06:14:23.171Z,4.50
2023-07-08T06:15:07.915Z,3.92
2023-07-08T06:15:50.407Z,3.83
2023-07-08T06:16:41.112Z,3.83
2023-07-08T06:17:24.516Z,3.72
2023-07-08T06:18:07.169Z,4.07
2023-07-08T06:18:50.933Z,3.47
2023-07-08T06:19:33.587Z,3.83
2023-07-08T06:20:16.323Z,3.55
2023-07-08T06:21:01.184Z,3.78
2023-07-08T06:21:43.973Z,3.50
2023-07-08T06:22:44.778Z,3.72
2023-07-08T06:23:29.749Z,3.60
2023-07-08T06:24:13.223Z,3.80
2023-07-08T06:24:55.679Z,3.60
2023-07-08T06:25:39.221Z,3.85
2023-07-08T06:26:21.685Z,3.58
2023-07-08T06:27:06.289Z,3.22
2023-07-08T06:27:50.390Z,3.97
2023-07-08T06:28:33.817Z,4.30
2023-07-08T06:29:16.972Z,3.45
2023-07-08T06:30:00.431Z,3.50
2023-07-08T06:30:44.649Z,3.50
2023-07-08T06:31:27.314Z,3.50
2023-07-08T06:32:11.303Z,3.90
2023-07-08T06:32:53.905Z,3.38
2023-07-08T06:33:37.427Z,3.90
2023-07-08T06:34:20.360Z,3.65
2023-07-08T06:35:02.861Z,3.88
2023-07-08T06:35:46.428Z,3.50
2023-07-08T06:36:29.042Z,3.38
2023-07-08T06:37:11.605Z,3.80
2023-07-08T06:37:55.080Z,3.25
2023-07-08T06:38:37.556Z,2.92
2023-07-08T06:39:20.419Z,3.95
2023-07-08T06:40:05.145Z,3.72
2023-07-08T06:40:47.629Z,4.20
2023-07-08T06:41:30.124Z,4.05
2023-07-08T06:42:15.053Z,3.42
2023-07-08T06:42:57.684Z,4.43
2023-07-08T06:43:40.228Z,3.38
2023-07-08T06:44:23.770Z,3.22
2023-07-08T06:45:07.047Z,3.42
2023-07-08T06:45:50.363Z,3.00
2023-07-08T06:46:34.079Z,3.45
2023-07-08T06:47:16.658Z,3.72
2023-07-08T06:47:59.173Z,3.58
2023-07-08T06:48:42.673Z,3.15
2023-07-08T06:49:25.199Z,3.33
2023-07-08T06:50:08.826Z,3.25
2023-07-08T06:50:56.492Z,3.60
2023-07-08T06:51:39.010Z,3.17
2023-07-08T06:52:25.283Z,3.22
2023-07-08T06:53:09.055Z,3.33
2023-07-08T06:53:52.544Z,3.08
2023-07-08T06:54:35.121Z,2.92
2023-07-08T06:55:17.770Z,3.67
2023-07-08T06:56:02.389Z,3.28
2023-07-08T06:56:44.846Z,3.33
2023-07-08T06:57:28.958Z,3.22
2023-07-08T06:58:12.857Z,3.58
2023-07-08T06:58:55.322Z,3.60
2023-07-08T06:59:37.808Z,3.03
2023-07-08T07:00:21.666Z,4.10
2023-07-08T07:01:04.794Z,3.38
2023-07-08T07:01:47.600Z,3.53
2023-07-08T07:02:31.142Z,4.18
2023-07-08T07:03:14.242Z,3.20
2023-07-08T07:03:57.915Z,3.80
2023-07-08T07:04:40.435Z,3.08
2023-07-08T07:05:23.806Z,3.70
2023-07-08T07:06:07.365Z,2.97
2023-07-08T07:06:49.794Z,3.90
2023-07-08T07:07:32.284Z,3.53
2023-07-08T07:08:15.761Z,3.53
2023-07-08T07:08:58.286Z,3.25
2023-07-08T07:09:40.913Z,3.60
2023-07-08T07:10:25.137Z,3.00
2023-07-08T07:11:07.741Z,3.58
2023-07-08T07:11:50.184Z,3.83
2023-07-08T07:12:35.460Z,3.67
2023-07-08T07:13:18.008Z,3.13
2023-07-08T07:14:00.533Z,3.20
2023-07-08T07:14:47.394Z,3.10
2023-07-08T07:15:31.582Z,3.05
2023-07-08T07:16:15.122Z,3.25
2023-07-08T07:17:08.138Z,3.00
2023-07-08T07:17:51.266Z,3.33
2023-07-08T07:18:34.809Z,3.13
2023-07-08T07:19:17.300Z,3.00
2023-07-08T07:19:59.769Z,3.53
2023-07-08T07:20:50.756Z,3.10
2023-07-08T07:21:33.285Z,3.30
2023-07-08T07:22:15.952Z,4.05
2023-07-08T07:22:59.470Z,3.30
2023-07-08T07:23:41.967Z,3.28
2023-07-08T07:24:24.548Z,2.92
2023-07-08T07:25:08.866Z,3.80
2023-07-08T07:25:51.470Z,3.03
2023-07-08T07:26:33.946Z,3.00
2023-07-08T07:27:17.581Z,3.85
2023-07-08T07:28:02.158Z,3.40
2023-07-08T07:28:44.775Z,3.10
2023-07-08T07:29:28.294Z,3.70
2023-07-08T07:30:13.963Z,3.50
2023-07-08T07:31:00.459Z,2.95
2023-07-08T07:31:45.733Z,3.63
2023-07-08T07:32:30.503Z,3.63
2023-07-08T07:33:13.143Z,2.90
2023-07-08T07:33:56.606Z,2.95
2023-07-08T07:34:39.521Z,3.30
2023-07-08T07:35:24.040Z,3.60
2023-07-08T07:36:08.140Z,3.13
2023-07-08T07:36:50.643Z,3.30
2023-07-08T07:37:33.144Z,2.75
2023-07-08T07:38:17.687Z,2.80
2023-07-08T07:39:00.250Z,2.90
2023-07-08T07:39:43.239Z,3.08
2023-07-08T07:40:26.706Z,3.60
2023-07-08T07:41:11.820Z,3.25
2023-07-08T07:41:54.347Z,2.80
2023-07-08T07:42:37.794Z,2.92
2023-07-08T07:43:21.724Z,3.03
2023-07-08T07:44:04.374Z,2.78
2023-07-08T07:44:48.216Z,3.42
2023-07-08T07:45:30.676Z,3.22
2023-07-08T07:46:14.609Z,3.22
2023-07-08T07:46:58.043Z,3.10
2023-07-08T07:47:40.907Z,3.13
2023-07-08T07:48:25.241Z,2.90
2023-07-08T07:49:07.759Z,3.10
2023-07-08T07:49:50.266Z,3.78
2023-07-08T07:50:35.378Z,3.25
2023-07-08T07:51:17.928Z,3.10
2023-07-08T07:52:00.664Z,3.65
2023-07-08T07:52:46.214Z,2.78
2023-07-08T07:53:30.320Z,2.90
2023-07-08T07:54:12.839Z,2.70
2023-07-08T07:54:56.993Z,3.03
2023-07-08T07:55:39.411Z,2.67
2023-07-08T07:56:25.397Z,2.70
2023-07-08T07:57:10.117Z,2.83
2023-07-08T07:57:52.574Z,2.70
2023-07-08T07:58:37.392Z,3.63
2023-07-08T07:59:19.965Z,3.15
2023-07-08T08:00:02.427Z,3.38
2023-07-08T08:00:45.906Z,3.03
2023-07-08T08:01:28.595Z,3.00
2023-07-08T08:02:13.079Z,3.40
2023-07-08T08:02:56.786Z,3.33
2023-07-08T08:03:39.485Z,3.05
2023-07-08T08:04:23.358Z,3.22
2023-07-08T08:05:06.139Z,3.17
2023-07-08T08:05:49.861Z,3.20
2023-07-08T08:06:32.418Z,3.30
2023-07-08T08:07:14.917Z,3.40
2023-07-08T08:07:58.371Z,3.35
2023-07-08T08:08:40.877Z,2.83
2023-07-08T08:09:23.359Z,2.95
2023-07-08T08:10:07.597Z,2.63
2023-07-08T08:10:50.348Z,3.13
2023-07-08T08:11:33.082Z,3.20
2023-07-08T08:12:16.545Z,2.90
2023-07-08T08:12:59.021Z,3.13
2023-07-08T08:13:44.014Z,3.20
2023-07-08T08:14:26.553Z,3.22
2023-07-08T08:15:09.862Z,2.72
2023-07-08T08:15:58.950Z,2.70
2023-07-08T08:16:41.887Z,2.85
2023-07-08T08:17:24.397Z,2.80
2023-07-08T08:18:07.961Z,2.90
2023-07-08T08:18:50.505Z,3.03
2023-07-08T08:19:34.287Z,2.53
2023-07-08T08:20:17.306Z,3.08
2023-07-08T08:20:59.759Z,3.40
2023-07-08T08:21:43.273Z,2.65
2023-07-08T08:22:26.021Z,2.60
2023-07-08T08:23:08.516Z,2.60
2023-07-08T08:23:51.968Z,2.88
2023-07-08T08:24:35.240Z,2.50
2023-07-08T08:25:18.716Z,3.42
2023-07-08T08:26:02.348Z,2.83
2023-07-08T08:26:44.949Z,2.80
2023-07-08T08:27:27.652Z,2.65
2023-07-08T08:28:11.263Z,3.50
2023-07-08T08:28:57.793Z,2.92
2023-07-08T08:29:40.396Z,2.60
2023-07-08T08:30:24.020Z,2.88
2023-07-08T08:31:06.591Z,2.65
2023-07-08T08:31:49.186Z,2.80
2023-07-08T08:32:34.279Z,2.60
2023-07-08T08:33:16.875Z,2.58
2023-07-08T08:33:59.476Z,2.63
2023-07-08T08:34:43.597Z,2.97
2023-07-08T08:35:26.139Z,3.13
2023-07-08T08:36:08.790Z,2.55
2023-07-08T08:36:52.222Z,2.70
2023-07-08T08:37:33.909Z,3.22
2023-07-08T08:38:19.420Z,3.10
2023-07-08T08:39:45.195Z,2.72
2023-07-08T08:40:28.818Z,2.75
2023-07-08T08:41:14.675Z,2.92
2023-07-08T08:41:57.983Z,2.88
2023-07-08T08:42:44.462Z,2.72
2023-07-08T08:43:34.796Z,2.58
2023-07-08T08:44:19.920Z,3.65
2023-07-08T08:45:04.698Z,3.03
2023-07-08T08:45:52.140Z,2.40
2023-07-08T08:46:39.983Z,2.70
2023-07-08T08:47:31.792Z,2.88
2023-07-08T08:49:04.227Z,2.70
2023-07-08T08:49:53.235Z,2.90
2023-07-08T08:50:41.073Z,2.60
2023-07-08T08:51:25.890Z,2.58
2023-07-08T08:52:10.032Z,2.65
2023-07-08T08:52:52.717Z,2.78
2023-07-08T08:53:35.295Z,2.90
2023-07-08T08:54:19.713Z,2.42
2023-07-08T08:55:03.876Z,2.95
2023-07-08T08:55:49.927Z,2.65
2023-07-08T08:56:39.399Z,2.58
2023-07-08T08:57:32.407Z,2.58
2023-07-08T08:58:26.088Z,2.63
2023-07-08T08:59:15.771Z,2.80
2023-07-08T09:00:02.280Z,3.30
2023-07-08T09:00:52.020Z,2.65
2023-07-08T09:01:37.069Z,2.50
2023-07-08T09:02:28.273Z,2.80
2023-07-08T09:03:15.005Z,3.17
2023-07-08T09:04:00.673Z,2.35
2023-07-08T09:04:43.697Z,2.80
2023-07-08T09:05:28.008Z,2.90
2023-07-08T09:06:13.605Z,2.38
2023-07-08T09:07:01.688Z,3.13
2023-07-08T09:07:48.998Z,2.42
2023-07-08T09:08:35.830Z,2.55
2023-07-08T09:09:21.595Z,2.50
2023-07-08T09:10:10.228Z,2.17
2023-07-08T09:10:57.080Z,2.40
2023-07-08T09:11:47.020Z,2.30
2023-07-08T09:12:31.176Z,2.63
2023-07-08T09:13:18.003Z,2.35
2023-07-08T09:14:01.555Z,2.40
2023-07-08T09:14:44.184Z,2.10
2023-07-08T09:15:28.849Z,3.42
2023-07-08T09:16:17.620Z,2.88
2023-07-08T09:17:12.872Z,2.70
2023-07-08T09:17:58.101Z,3.20
2023-07-08T09:18:46.351Z,2.63
2023-07-08T09:19:34.866Z,2.60
2023-07-08T09:20:22.843Z,2.53
2023-07-08T09:21:18.728Z,2.97
2023-07-08T09:22:05.225Z,2.42
2023-07-08T09:22:50.767Z,2.60
2023-07-08T09:24:19.999Z,2.33
2023-07-08T09:25:06.634Z,3.08
2023-07-08T09:25:54.289Z,2.38
2023-07-08T09:26:37.717Z,3.30
2023-07-08T09:27:21.200Z,3.10
2023-07-08T09:28:04.206Z,2.58
2023-07-08T09:28:47.507Z,2.92
2023-07-08T09:29:33.711Z,2.47
2023-07-08T09:30:17.345Z,2.63
2023-07-08T09:31:01.211Z,2.72
2023-07-08T09:31:44.917Z,2.50
2023-07-08T09:32:29.068Z,2.45
2023-07-08T09:33:12.632Z,2.35
2023-07-08T09:34:06.460Z,2.30
2023-07-08T09:34:52.568Z,2.33
2023-07-08T09:35:42.479Z,2.40
2023-07-08T09:36:25.942Z,2.70
2023-07-08T09:37:28.101Z,2.35
2023-07-08T09:38:14.403Z,2.10
2023-07-08T09:38:57.987Z,2.13
2023-07-08T09:39:40.444Z,2.78
2023-07-08T09:40:31.525Z,2.60
2023-07-08T09:41:14.290Z,2.40
2023-07-08T09:41:56.817Z,2.25
2023-07-08T09:42:40.531Z,2.50
2023-07-08T09:43:26.943Z,2.42
2023-07-08T09:44:20.352Z,2.30
2023-07-08T09:45:06.587Z,2.42
2023-07-08T09:45:49.867Z,2.30
2023-07-08T09:46:38.991Z,2.20
2023-07-08T09:47:23.636Z,2.38
2023-07-08T09:48:15.707Z,2.30
2023-07-08T09:48:58.342Z,2.33
2023-07-08T09:49:41.415Z,2.20
2023-07-08T09:50:26.948Z,2.53
2023-07-08T09:51:52.905Z,2.40
2023-07-08T09:52:36.409Z,2.38
2023-07-08T09:53:19.653Z,2.47
2023-07-08T09:54:02.615Z,2.15
2023-07-08T09:54:48.736Z,3.00
2023-07-08T09:55:31.197Z,2.60